createdAt,value
2019-04-07T00:02:18.693Z,16.99
2019-04-07T00:04:46.856Z,17.39
2019-04-07T00:07:14.748Z,16.93
2019-04-07T00:09:42.558Z,16.51
2019-04-07T00:12:10.417Z,16.93
2019-04-07T00:14:39.154Z,16.83
2019-04-07T00:17:07.251Z,16.67
2019-04-07T00:19:34.981Z,16.87
2019-04-07T00:22:03.932Z,16.39
2019-04-07T00:24:31.708Z,16.84
2019-04-07T00:26:59.800Z,16.65
2019-04-07T00:29:27.704Z,16.19
2019-04-07T00:31:55.735Z,17.25
2019-04-07T00:34:23.820Z,17.27
2019-04-07T00:36:52.057Z,16.85
2019-04-07T00:39:20.684Z,15.78
2019-04-07T00:41:48.536Z,16.07
2019-04-07T00:44:16.797Z,16.10
2019-04-07T00:46:45.152Z,16.98
2019-04-07T00:49:13.245Z,16.76
2019-04-07T00:51:41.047Z,16.21
2019-04-07T00:54:09.306Z,15.41
2019-04-07T00:56:37.582Z,16.11
2019-04-07T00:59:05.358Z,16.70
2019-04-07T01:01:33.099Z,17.18
2019-04-07T01:04:02.054Z,17.41
2019-04-07T01:06:30.886Z,17.03
2019-04-07T01:09:00.255Z,16.40
2019-04-07T01:11:28.021Z,16.59
2019-04-07T01:13:55.731Z,16.48
2019-04-07T01:16:23.573Z,16.08
2019-04-07T01:18:51.907Z,15.75
2019-04-07T01:21:20.306Z,15.97
2019-04-07T01:23:48.106Z,16.68
2019-04-07T01:26:16.331Z,16.99
2019-04-07T01:28:45.599Z,16.24
2019-04-07T01:31:13.461Z,16.37
2019-04-07T01:33:41.626Z,16.54
2019-04-07T01:36:09.507Z,15.83
2019-04-07T01:38:37.881Z,16.76
2019-04-07T01:41:37.188Z,16.97
2019-04-07T01:44:19.004Z,17.05
2019-04-07T01:47:09.058Z,15.73
2019-04-07T01:49:55.895Z,15.57
2019-04-07T01:52:30.081Z,16.31
2019-04-07T01:55:05.995Z,16.18
2019-04-07T01:57:51.026Z,16.25
2019-04-07T02:00:37.066Z,16.12
2019-04-07T02:03:39.220Z,16.88
2019-04-07T02:06:16.569Z,15.66
2019-04-07T02:08:55.807Z,15.05
2019-04-07T02:11:39.754Z,15.94
2019-04-07T02:14:35.531Z,16.23
2019-04-07T02:17:21.087Z,16.27
2019-04-07T02:19:58.223Z,15.29
2019-04-07T02:22:48.156Z,15.32
2019-04-07T02:25:25.228Z,15.50
2019-04-07T02:28:21.851Z,16.17
2019-04-07T02:31:15.432Z,16.19
2019-04-07T02:33:52.459Z,16.11
2019-04-07T02:36:37.667Z,15.24
2019-04-07T02:39:15.277Z,15.94
2019-04-07T02:42:15.194Z,16.42
2019-04-07T02:44:55.910Z,16.08
2019-04-07T02:47:32.366Z,16.53
2019-04-07T02:50:17.914Z,16.50
2019-04-07T02:53:07.658Z,15.35
2019-04-07T02:55:42.310Z,15.88
2019-04-07T02:58:31.130Z,16.38
2019-04-07T03:01:18.369Z,15.83
2019-04-07T03:04:00.126Z,15.91
2019-04-07T03:06:47.294Z,16.21
2019-04-07T03:09:25.992Z,15.75
2019-04-07T03:12:16.236Z,15.37
2019-04-07T03:15:03.311Z,16.24
2019-04-07T03:17:36.307Z,16.09
2019-04-07T03:20:10.606Z,16.24
2019-04-07T03:23:09.511Z,16.39
2019-04-07T03:25:48.490Z,15.72
2019-04-07T03:28:42.596Z,15.95
2019-04-07T03:31:17.690Z,16.10
2019-04-07T03:34:09.320Z,15.48
2019-04-07T03:37:11.623Z,15.14
2019-04-07T03:39:38.112Z,15.19
2019-04-07T03:42:21.307Z,15.42
2019-04-07T03:45:04.382Z,16.00
2019-04-07T03:47:43.697Z,15.71
2019-04-07T03:50:16.669Z,15.44
2019-04-07T03:52:54.385Z,15.03
2019-04-07T03:55:38.908Z,15.35
2019-04-07T03:58:14.423Z,16.00
2019-04-07T04:01:47.870Z,16.10
2019-04-07T04:04:22.297Z,16.31
2019-04-07T04:07:20.237Z,15.72
2019-04-07T04:09:45.573Z,15.76
2019-04-07T04:12:18.481Z,15.76
2019-04-07T04:14:57.633Z,16.16
2019-04-07T04:17:25.108Z,15.79
2019-04-07T04:19:53.212Z,16.11
2019-04-07T04:22:21.098Z,16.05
2019-04-07T04:24:51.597Z,15.90
2019-04-07T04:27:20.345Z,15.43
2019-04-07T04:29:51.814Z,16.14
2019-04-07T04:32:17.629Z,15.43
2019-04-07T04:34:46.492Z,15.67
2019-04-07T04:37:14.784Z,15.51
2019-04-07T04:39:42.675Z,15.95
2019-04-07T04:42:10.498Z,15.46
2019-04-07T04:44:38.285Z,15.54
2019-04-07T04:47:05.996Z,15.75
2019-04-07T04:49:33.755Z,16.08
2019-04-07T04:52:03.163Z,16.25
2019-04-07T04:54:33.545Z,16.29
2019-04-07T04:57:05.441Z,16.38
2019-04-07T05:00:05.613Z,16.32
2019-04-07T05:02:33.723Z,16.54
2019-04-07T05:05:02.439Z,16.21
2019-04-07T05:07:30.312Z,16.21
2019-04-07T05:09:58.806Z,15.59
2019-04-07T05:12:35.129Z,15.95
2019-04-07T05:15:02.940Z,16.00
2019-04-07T05:17:31.139Z,16.11
2019-04-07T05:19:58.869Z,16.10
2019-04-07T05:22:26.899Z,16.17
2019-04-07T05:24:54.621Z,15.75
2019-04-07T05:27:22.868Z,15.30
2019-04-07T05:29:51.091Z,15.69
2019-04-07T05:32:19.102Z,16.07
2019-04-07T05:34:46.890Z,16.02
2019-04-07T05:37:14.617Z,15.88
2019-04-07T05:39:42.563Z,16.01
2019-04-07T05:42:10.315Z,15.47
2019-04-07T05:44:38.572Z,15.59
2019-04-07T05:47:07.066Z,15.57
2019-04-07T05:49:34.787Z,15.62
2019-04-07T05:52:05.533Z,15.75
2019-04-07T05:54:31.943Z,15.80
2019-04-07T05:57:01.520Z,15.68
2019-04-07T05:59:30.349Z,15.49
2019-04-07T06:02:01.334Z,15.68
2019-04-07T06:04:28.231Z,15.81
2019-04-07T06:06:56.404Z,15.77
2019-04-07T06:09:24.236Z,14.94
2019-04-07T06:11:52.270Z,15.47
2019-04-07T06:14:20.491Z,15.78
2019-04-07T06:16:52.440Z,15.70
2019-04-07T06:19:18.294Z,15.30
2019-04-07T06:21:48.567Z,15.48
2019-04-07T06:24:15.963Z,15.65
2019-04-07T06:26:47.654Z,15.77
2019-04-07T06:29:13.479Z,15.77
2019-04-07T06:31:44.794Z,16.04
2019-04-07T06:34:13.769Z,16.00
2019-04-07T06:36:41.657Z,15.63
2019-04-07T06:39:09.589Z,15.17
2019-04-07T06:41:37.768Z,15.72
2019-04-07T06:44:11.984Z,15.57
2019-04-07T06:47:06.564Z,15.56
2019-04-07T06:49:59.544Z,15.66
2019-04-07T06:52:49.382Z,15.24
2019-04-07T06:55:45.019Z,15.49
2019-04-07T06:58:27.065Z,15.71
2019-04-07T07:01:16.845Z,15.97
2019-04-07T07:04:12.911Z,15.71
2019-04-07T07:06:58.937Z,15.78
2019-04-07T07:09:40.446Z,15.56
2019-04-07T07:12:32.277Z,15.73
2019-04-07T07:15:07.960Z,15.66
2019-04-07T07:17:56.157Z,15.25
2019-04-07T07:20:46.193Z,15.16
2019-04-07T07:23:17.440Z,15.68
2019-04-07T07:25:50.654Z,15.49
2019-04-07T07:28:19.401Z,15.99
2019-04-07T07:30:49.813Z,16.48
2019-04-07T07:33:16.811Z,16.50
2019-04-07T07:35:48.777Z,15.49
2019-04-07T07:38:14.878Z,16.36
2019-04-07T07:40:44.795Z,16.51
2019-04-07T07:43:12.194Z,16.17
2019-04-07T07:45:43.623Z,16.28
2019-04-07T07:48:09.902Z,16.30
2019-04-07T07:50:39.517Z,16.55
2019-04-07T07:53:10.531Z,16.70
2019-04-07T07:55:40.183Z,16.71
2019-04-07T07:58:11.597Z,16.73
2019-04-07T08:00:42.197Z,16.89
2019-04-07T08:03:10.201Z,16.67
2019-04-07T08:05:38.069Z,16.89
2019-04-07T08:08:05.927Z,17.07
2019-04-07T08:10:34.260Z,17.01
2019-04-07T08:13:05.056Z,17.05
2019-04-07T08:15:33.351Z,16.72
2019-04-07T08:18:04.776Z,16.88
2019-04-07T08:20:31.867Z,17.07
2019-04-07T08:23:01.426Z,17.52
2019-04-07T08:25:29.205Z,17.71
2019-04-07T08:27:58.040Z,17.87
2019-04-07T08:30:28.226Z,17.80
2019-04-07T08:32:59.163Z,17.78
2019-04-07T08:35:26.562Z,17.90
2019-04-07T08:37:54.529Z,17.91
2019-04-07T08:40:22.703Z,17.94
2019-04-07T08:42:50.972Z,17.95
2019-04-07T08:45:19.654Z,18.05
2019-04-07T08:47:49.565Z,18.16
2019-04-07T08:50:16.973Z,18.22
2019-04-07T08:52:45.471Z,18.20
2019-04-07T08:55:13.880Z,18.07
2019-04-07T08:57:44.411Z,18.30
2019-04-07T09:00:17.544Z,18.35
2019-04-07T09:02:59.812Z,18.32
2019-04-07T09:05:20.638Z,18.16
2019-04-07T09:08:03.551Z,18.36
2019-04-07T09:10:32.563Z,18.19
2019-04-07T09:13:02.979Z,18.62
2019-04-07T09:15:44.128Z,18.39
2019-04-07T09:18:28.329Z,18.69
2019-04-07T09:21:14.996Z,18.54
2019-04-07T09:24:13.184Z,18.34
2019-04-07T09:26:51.202Z,18.57
2019-04-07T09:29:35.657Z,18.50
2019-04-07T09:32:34.903Z,18.02
2019-04-07T09:35:24.142Z,18.20
2019-04-07T09:38:28.370Z,18.78
2019-04-07T09:41:21.655Z,18.79
2019-04-07T09:44:12.644Z,18.78
2019-04-07T09:47:02.452Z,18.90
2019-04-07T09:49:46.160Z,19.02
2019-04-07T09:52:21.005Z,19.10
2019-04-07T09:54:57.436Z,19.15
2019-04-07T09:57:38.786Z,19.06
2019-04-07T10:00:22.866Z,19.15
2019-04-07T10:03:22.332Z,19.09
2019-04-07T10:05:58.956Z,19.15
2019-04-07T10:08:34.189Z,19.15
2019-04-07T10:11:14.761Z,19.07
2019-04-07T10:14:02.382Z,19.19
2019-04-07T10:16:49.546Z,18.96
2019-04-07T10:19:44.691Z,19.25
2019-04-07T10:22:38.459Z,19.47
2019-04-07T10:25:39.083Z,19.44
2019-04-07T10:28:20.507Z,19.48
2019-04-07T10:31:07.427Z,19.63
2019-04-07T10:33:48.173Z,19.50
2019-04-07T10:36:31.904Z,19.59
2019-04-07T10:39:15.657Z,19.53
2019-04-07T10:42:05.492Z,19.63
2019-04-07T10:44:43.655Z,19.73
2019-04-07T10:47:28.020Z,19.86
2019-04-07T10:50:24.630Z,19.93
2019-04-07T10:53:23.686Z,19.98
2019-04-07T10:56:02.321Z,20.00
2019-04-07T10:58:50.110Z,19.87
2019-04-07T11:01:33.386Z,19.64
2019-04-07T11:04:20.369Z,19.59
2019-04-07T11:07:10.614Z,19.40
2019-04-07T11:10:07.509Z,19.83
2019-04-07T11:13:03.635Z,19.73
2019-04-07T11:15:50.973Z,20.05
2019-04-07T11:18:39.266Z,20.08
2019-04-07T11:21:26.567Z,20.16
2019-04-07T11:24:19.765Z,20.20
2019-04-07T11:26:59.317Z,20.00
2019-04-07T11:29:35.394Z,20.14
2019-04-07T11:32:22.950Z,20.35
2019-04-07T11:34:58.440Z,20.12
2019-04-07T11:37:47.361Z,20.36
2019-04-07T11:40:45.255Z,20.41
2019-04-07T11:43:22.657Z,20.12
2019-04-07T11:46:03.441Z,20.49
2019-04-07T11:48:36.104Z,20.47
2019-04-07T11:51:24.276Z,20.45
2019-04-07T11:54:01.491Z,20.21
2019-04-07T11:56:41.562Z,20.44
2019-04-07T11:59:23.936Z,20.45
2019-04-07T12:02:08.618Z,20.51
2019-04-07T12:04:46.892Z,20.48
2019-04-07T12:07:23.013Z,20.53
2019-04-07T12:10:15.855Z,20.56
2019-04-07T12:12:53.789Z,20.29
2019-04-07T12:15:56.853Z,20.52
2019-04-07T12:18:42.568Z,20.54
2019-04-07T12:21:28.592Z,20.63
2019-04-07T12:24:09.532Z,20.66
2019-04-07T12:26:56.612Z,20.50
2019-04-07T12:29:56.864Z,20.62
2019-04-07T12:32:47.777Z,20.63
2019-04-07T12:35:47.845Z,20.58
2019-04-07T12:38:33.826Z,20.64
2019-04-07T12:41:22.192Z,20.88
2019-04-07T12:44:15.870Z,20.93
2019-04-07T12:47:01.805Z,21.13
2019-04-07T12:49:48.814Z,21.04
2019-04-07T12:52:27.255Z,21.08
2019-04-07T12:55:17.838Z,21.18
2019-04-07T12:58:02.072Z,21.18
2019-04-07T13:00:57.842Z,21.03
2019-04-07T13:03:31.727Z,20.92
2019-04-07T13:06:24.165Z,20.91
2019-04-07T13:09:04.390Z,20.96
2019-04-07T13:11:47.160Z,21.05
2019-04-07T13:14:38.651Z,20.58
2019-04-07T13:17:14.846Z,20.98
2019-04-07T13:20:31.121Z,20.72
2019-04-07T13:22:58.710Z,20.95
2019-04-07T13:25:54.438Z,21.04
2019-04-07T13:28:37.140Z,20.93
2019-04-07T13:31:22.715Z,20.86
2019-04-07T13:34:12.788Z,21.03
2019-04-07T13:36:51.058Z,21.03
2019-04-07T13:39:40.283Z,20.81
2019-04-07T13:42:25.443Z,20.96
2019-04-07T13:45:21.578Z,20.83
2019-04-07T13:48:09.072Z,20.92
2019-04-07T13:51:08.398Z,20.79
2019-04-07T13:54:02.101Z,21.22
2019-04-07T13:56:52.105Z,21.26
2019-04-07T13:59:44.851Z,21.21
2019-04-07T14:02:30.192Z,21.22
2019-04-07T14:05:16.879Z,21.31
2019-04-07T14:08:16.063Z,21.29
2019-04-07T14:11:11.039Z,21.35
2019-04-07T14:13:56.573Z,21.23
2019-04-07T14:16:56.123Z,21.28
2019-04-07T14:19:35.397Z,21.32
2019-04-07T14:22:11.186Z,21.36
2019-04-07T14:24:53.713Z,21.41
2019-04-07T14:27:43.422Z,21.28
2019-04-07T14:30:21.309Z,21.37
2019-04-07T14:33:10.060Z,21.28
2019-04-07T14:35:55.408Z,21.32
2019-04-07T14:38:34.520Z,21.36
2019-04-07T14:41:31.170Z,21.41
2019-04-07T14:44:18.272Z,21.58
2019-04-07T14:47:03.986Z,21.52
2019-04-07T14:49:51.837Z,21.52
2019-04-07T14:52:28.826Z,21.27
2019-04-07T14:55:10.978Z,21.27
2019-04-07T14:57:57.075Z,21.39
2019-04-07T15:00:36.344Z,21.54
2019-04-07T15:03:05.133Z,21.48
2019-04-07T15:05:35.625Z,21.25
2019-04-07T15:08:47.472Z,21.41
2019-04-07T15:11:25.078Z,21.17
2019-04-07T15:13:56.991Z,21.48
2019-04-07T15:16:22.790Z,21.19
2019-04-07T15:18:51.176Z,21.45
2019-04-07T15:21:19.956Z,21.03
2019-04-07T15:23:48.219Z,21.38
2019-04-07T15:26:22.042Z,21.36
2019-04-07T15:28:49.239Z,21.03
2019-04-07T15:31:18.339Z,21.12
2019-04-07T15:33:46.706Z,21.59
2019-04-07T15:36:17.412Z,21.24
2019-04-07T15:38:44.310Z,21.80
2019-04-07T15:41:15.724Z,21.77
2019-04-07T15:43:41.598Z,21.78
2019-04-07T15:46:09.586Z,21.86
2019-04-07T15:48:37.670Z,21.88
2019-04-07T15:51:05.494Z,21.90
2019-04-07T15:53:34.026Z,21.70
2019-04-07T15:56:05.836Z,21.28
2019-04-07T15:58:32.052Z,21.78
2019-04-07T16:01:10.807Z,21.80
2019-04-07T16:03:39.351Z,21.85
2019-04-07T16:06:07.815Z,21.75
2019-04-07T16:08:35.847Z,21.79
2019-04-07T16:11:03.840Z,21.71
2019-04-07T16:13:31.750Z,21.63
2019-04-07T16:15:59.709Z,21.61
2019-04-07T16:18:28.433Z,21.72
2019-04-07T16:20:56.394Z,21.76
2019-04-07T16:23:24.348Z,21.69
2019-04-07T16:25:52.321Z,21.71
2019-04-07T16:28:20.740Z,21.84
2019-04-07T16:30:51.617Z,21.88
2019-04-07T16:33:18.214Z,21.85
2019-04-07T16:35:55.398Z,21.92
2019-04-07T16:38:20.640Z,21.94
2019-04-07T16:40:49.057Z,21.99
2019-04-07T16:43:18.897Z,21.99
2019-04-07T16:45:47.113Z,21.36
2019-04-07T16:48:14.891Z,21.92
2019-04-07T16:50:42.864Z,21.74
2019-04-07T16:53:10.798Z,21.67
2019-04-07T16:55:40.228Z,21.83
2019-04-07T16:58:09.661Z,21.79
2019-04-07T17:00:38.383Z,21.78
2019-04-07T17:03:07.825Z,21.86
2019-04-07T17:05:36.440Z,21.66
2019-04-07T17:08:07.380Z,20.96
2019-04-07T17:10:37.030Z,21.60
2019-04-07T17:13:15.869Z,21.52
2019-04-07T17:15:42.306Z,21.54
2019-04-07T17:18:26.205Z,21.61
2019-04-07T17:20:55.189Z,21.52
2019-04-07T17:23:24.227Z,21.57
2019-04-07T17:25:53.026Z,21.19
2019-04-07T17:28:48.228Z,21.24
2019-04-07T17:31:17.495Z,21.43
2019-04-07T17:33:45.687Z,21.15
2019-04-07T17:36:17.627Z,21.03
2019-04-07T17:39:07.882Z,21.15
2019-04-07T17:41:35.017Z,21.22
2019-04-07T17:44:18.301Z,21.15
2019-04-07T17:47:04.539Z,20.80
2019-04-07T17:50:00.960Z,20.79
2019-04-07T17:52:47.133Z,21.05
2019-04-07T17:55:34.256Z,20.87
2019-04-07T17:58:27.417Z,20.80
2019-04-07T18:01:13.898Z,20.63
2019-04-07T18:04:00.552Z,20.68
2019-04-07T18:06:40.423Z,20.20
2019-04-07T18:09:26.387Z,20.78
2019-04-07T18:12:17.816Z,20.71
2019-04-07T18:15:09.101Z,19.90
2019-04-07T18:17:56.064Z,20.49
2019-04-07T18:20:39.569Z,20.58
2019-04-07T18:23:37.964Z,20.63
2019-04-07T18:26:20.770Z,20.21
2019-04-07T18:29:28.794Z,20.64
2019-04-07T18:32:26.470Z,20.63
2019-04-07T18:35:40.933Z,20.48
2019-04-07T18:38:52.186Z,20.40
2019-04-07T18:51:13.877Z,19.98
2019-04-07T18:57:46.479Z,20.02
2019-04-07T19:00:45.424Z,19.81
2019-04-07T19:03:53.313Z,19.45
2019-04-07T19:06:53.795Z,20.17
2019-04-07T19:09:38.001Z,20.21
2019-04-07T19:12:28.678Z,20.05
2019-04-07T19:15:08.871Z,20.55
2019-04-07T19:17:50.387Z,19.89
2019-04-07T19:21:13.383Z,19.29
2019-04-07T19:24:09.869Z,19.19
2019-04-07T19:30:03.878Z,19.39
2019-04-07T19:33:25.976Z,19.95
2019-04-07T19:35:50.577Z,19.91
2019-04-07T19:38:38.696Z,19.76
2019-04-07T19:41:35.017Z,19.67
2019-04-07T19:44:51.057Z,19.12
2019-04-07T19:54:36.493Z,19.26
2019-04-07T19:57:13.774Z,18.73
2019-04-07T19:59:52.765Z,19.00
2019-04-07T20:02:32.699Z,18.76
2019-04-07T20:05:21.077Z,18.89
2019-04-07T20:08:02.299Z,18.73
2019-04-07T20:13:24.089Z,19.07
2019-04-07T20:16:12.825Z,18.79
2019-04-07T20:19:40.261Z,18.66
2019-04-07T20:22:45.553Z,18.87
2019-04-07T20:25:25.314Z,18.64
2019-04-07T20:28:17.451Z,18.48
2019-04-07T20:31:12.544Z,18.96
2019-04-07T20:33:56.818Z,19.28
2019-04-07T20:36:34.407Z,18.69
2019-04-07T20:39:07.716Z,19.29
2019-04-07T20:41:43.072Z,19.28
2019-04-07T20:44:21.073Z,19.48
2019-04-07T20:47:12.135Z,19.84
2019-04-07T20:50:05.517Z,19.58
2019-04-07T20:53:09.275Z,19.82
2019-04-07T20:55:41.398Z,19.99
2019-04-07T20:58:42.114Z,19.66
2019-04-07T21:01:11.243Z,19.56
2019-04-07T21:04:10.656Z,19.05
2019-04-07T21:06:55.137Z,19.18
2019-04-07T21:09:41.737Z,18.79
2019-04-07T21:12:29.724Z,18.90
2019-04-07T21:15:21.050Z,18.67
2019-04-07T21:18:00.177Z,18.91
2019-04-07T21:20:44.604Z,19.58
2019-04-07T21:23:41.222Z,19.93
2019-04-07T21:26:35.960Z,19.84
2019-04-07T21:29:22.493Z,17.91
2019-04-07T21:32:21.591Z,18.51
2019-04-07T21:35:21.339Z,18.72
2019-04-07T21:38:08.098Z,19.19
2019-04-07T21:40:46.723Z,18.92
2019-04-07T21:43:42.803Z,18.53
2019-04-07T21:46:34.693Z,18.94
2019-04-07T21:49:20.678Z,19.40
2019-04-07T21:52:05.443Z,19.40
2019-04-07T21:54:55.649Z,19.32
2019-04-07T21:57:48.894Z,19.20
2019-04-07T22:00:32.554Z,19.11
2019-04-07T22:03:28.952Z,19.36
2019-04-07T22:06:19.996Z,19.28
2019-04-07T22:09:06.802Z,19.54
2019-04-07T22:11:34.712Z,19.53
2019-04-07T22:14:04.148Z,19.60
2019-04-07T22:16:38.099Z,19.60
2019-04-07T22:19:09.364Z,19.15
2019-04-07T22:21:36.139Z,19.41
2019-04-07T22:24:04.911Z,19.32
2019-04-07T22:26:33.606Z,19.39
2019-04-07T22:29:04.034Z,19.47
2019-04-07T22:31:36.714Z,19.37
2019-04-07T22:34:04.668Z,19.19
2019-04-07T22:36:32.406Z,19.34
2019-04-07T22:39:02.358Z,19.44
2019-04-07T22:41:29.602Z,19.35
2019-04-07T22:43:57.480Z,19.20
2019-04-07T22:46:31.041Z,18.83
2019-04-07T22:49:00.894Z,18.58
2019-04-07T22:51:28.836Z,18.21
2019-04-07T22:53:57.774Z,18.67
2019-04-07T22:56:26.005Z,18.39
2019-04-07T22:58:54.170Z,18.36
2019-04-07T23:01:22.957Z,18.32
2019-04-07T23:03:51.716Z,18.65
2019-04-07T23:06:19.522Z,18.49
2019-04-07T23:08:47.244Z,18.55
2019-04-07T23:11:14.959Z,18.49
2019-04-07T23:13:42.734Z,18.59
2019-04-07T23:16:13.898Z,18.35
2019-04-07T23:18:40.222Z,18.50
2019-04-07T23:21:08.011Z,18.82
2019-04-07T23:23:35.710Z,19.00
2019-04-07T23:26:07.520Z,18.97
2019-04-07T23:28:37.294Z,18.69
2019-04-07T23:31:05.463Z,18.11
2019-04-07T23:33:34.623Z,17.55
2019-04-07T23:36:02.515Z,18.21
2019-04-07T23:38:30.496Z,18.60
2019-04-07T23:40:58.283Z,18.71
2019-04-07T23:43:25.995Z,18.70
2019-04-07T23:45:53.752Z,18.29
2019-04-07T23:48:22.232Z,17.93
2019-04-07T23:50:50.050Z,18.21
2019-04-07T23:53:37.226Z,18.27
2019-04-07T23:56:05.950Z,18.36
2019-04-07T23:58:35.679Z,18.55
